Terminal Aerodrome Forecast
Issued by NWS North Platte, NE

Home | Current Version | Previous Version | Graphics & Text | Print | Product List | Glossary On
Versions: 1 2 3 4 5 6 7 8 9 10 11 12 13 14 15
497
FTUS43 KLBF 031125
TAFVTN
TAF
KVTN 031125Z 0312/0412 33012KT P6SM BKN020
     FM031600 30006KT P6SM BKN050
     FM032100 29010KT P6SM BKN250
     FM040200 26007KT P6SM SCT250=

USA.gov is the U.S. government's official web portal to all federal, state and local government web resources and services.